Time;durP1;ratioP1;P1;durP2;ratioP2;P2;SDS_P1;SDS_P2;PMS_P1;PMS_P2;Temp;Humidity;BMP_temperature;BMP_pressure;BME280_temperature;BME280_humidity;BME280_pressure;Samples;Min_cycle;Max_cycle;Signal;HPM_P1;HPM_P2
2021/06/17 06:33:40;;;;;;;12.43;3.70;;;24.20;99.90;;;;;;12157794;27;20355;-57
2021/06/17 06:39:27;;;;;;;8.80;3.55;;;24.40;99.90;;;;;;12167709;27;20047;-52
2021/06/17 06:45:14;;;;;;;9.30;3.83;;;25.10;99.90;;;;;;12175562;27;20507;-54
2021/06/17 06:51:02;;;;;;;7.53;3.30;;;25.60;99.90;;;;;;12176393;27;20053;-56
2021/06/17 06:56:49;;;;;;;9.65;3.53;;;25.80;99.90;;;;;;12156772;27;20042;-54
2021/06/17 07:02:37;;;;;;;6.88;3.22;;;25.80;99.90;;;;;;12140841;28;20047;-54
2021/06/17 07:08:25;;;;;;;10.77;3.40;;;25.90;99.90;;;;;;12169807;27;20078;-51
2021/06/17 07:14:12;;;;;;;7.57;3.25;;;26.00;99.90;;;;;;12186812;27;20039;-52
2021/06/17 07:19:59;;;;;;;10.55;3.40;;;26.10;99.90;;;;;;12164095;27;20043;-56
2021/06/17 07:25:47;;;;;;;8.05;3.58;;;26.20;99.90;;;;;;12113447;27;20066;-53
2021/06/17 07:31:36;;;;;;;8.70;3.30;;;26.40;99.90;;;;;;12117468;27;20062;-53
2021/06/17 07:37:23;;;;;;;5.35;2.65;;;26.40;99.90;;;;;;12096683;27;20055;-55
2021/06/17 07:43:11;;;;;;;4.47;2.70;;;26.30;99.90;;;;;;12092250;28;20036;-56
2021/06/17 07:48:59;;;;;;;8.75;3.00;;;26.30;99.90;;;;;;12109199;27;20055;-54
2021/06/17 07:54:46;;;;;;;4.38;2.80;;;26.50;99.90;;;;;;12109087;27;20108;-56
2021/06/17 08:00:34;;;;;;;7.13;2.88;;;26.70;99.90;;;;;;12116319;27;20048;-56
2021/06/17 08:06:21;;;;;;;6.47;2.45;;;26.90;99.90;;;;;;12110723;28;20062;-56
2021/06/17 08:12:09;;;;;;;5.45;2.10;;;27.00;99.90;;;;;;12091112;27;20047;-55
2021/06/17 08:18:05;;;;;;;4.47;1.98;;;27.00;99.90;;;;;;12097734;28;20078;-54
2021/06/17 08:30:36;;;;;;;3.63;2.10;;;27.20;99.90;;;;;;12136570;28;20082;-55
2021/06/17 08:36:24;;;;;;;8.20;1.80;;;27.30;99.90;;;;;;12137354;28;20047;-56
2021/06/17 08:42:11;;;;;;;5.88;2.40;;;27.40;99.90;;;;;;12138023;28;20471;-55
2021/06/17 08:47:58;;;;;;;4.68;2.90;;;27.30;99.90;;;;;;12129041;28;20050;-51
2021/06/17 08:53:50;;;;;;;10.00;5.13;;;27.40;99.90;;;;;;12122032;28;20523;-54
2021/06/17 08:59:39;;;;;;;13.73;3.65;;;27.40;99.90;;;;;;12128127;28;20053;-51
2021/06/17 09:05:27;;;;;;;5.88;2.10;;;27.20;99.90;;;;;;12114474;28;21422;-56
2021/06/17 09:11:24;;;;;;;7.97;2.13;;;27.30;99.90;;;;;;12115226;28;20044;-51
2021/06/17 09:17:11;;;;;;;4.57;2.20;;;27.10;99.90;;;;;;12132125;28;20101;-55
2021/06/17 09:22:58;;;;;;;6.50;2.60;;;27.10;99.90;;;;;;12106449;28;20047;-57
2021/06/17 09:28:49;;;;;;;6.95;2.38;;;27.00;99.90;;;;;;12094331;28;20074;-53
2021/06/17 09:34:39;;;;;;;4.07;1.90;;;27.30;99.90;;;;;;12036242;27;20458;-55
2021/06/17 09:40:33;;;;;;;4.63;2.28;;;27.30;99.90;;;;;;12093416;28;20120;-54
2021/06/17 09:46:22;;;;;;;9.35;1.95;;;27.20;99.90;;;;;;12102261;27;20041;-57
2021/06/17 09:52:11;;;;;;;6.28;2.42;;;27.30;99.90;;;;;;12092065;27;20427;-56
2021/06/17 09:57:58;;;;;;;4.32;2.15;;;27.30;99.90;;;;;;12129491;28;20062;-56
2021/06/17 10:04:01;;;;;;;6.55;2.10;;;27.70;99.90;;;;;;12130738;28;20043;-55
2021/06/17 10:09:47;;;;;;;;;;;28.00;99.90;;;;;;12134556;27;20047;-51
2021/06/17 10:15:34;;;;;;;3.80;2.05;;;27.80;99.90;;;;;;12135026;28;19926;-55
2021/06/17 10:21:23;;;;;;;7.78;2.20;;;27.60;99.90;;;;;;12081257;28;20044;-54
2021/06/17 10:27:11;;;;;;;3.55;2.10;;;27.50;99.90;;;;;;12106928;28;20040;-51
2021/06/17 10:33:01;;;;;;;5.80;2.28;;;27.50;99.90;;;;;;12132601;28;20416;-53
2021/06/17 10:39:19;;;;;;;5.07;2.03;;;27.70;99.90;;;;;;12135256;27;20043;-56
2021/06/17 10:45:08;;;;;;;4.65;2.17;;;27.50;99.90;;;;;;12111613;27;20039;-57
2021/06/17 10:51:07;;;;;;;12.18;2.45;;;27.80;99.90;;;;;;12110139;27;20510;-56
2021/06/17 10:56:56;;;;;;;6.90;2.05;;;28.00;99.90;;;;;;12093002;28;20621;-56
2021/06/17 11:02:43;;;;;;;4.07;2.05;;;28.50;98.90;;;;;;12086616;27;20052;-57
2021/06/17 11:08:40;;;;;;;6.53;2.42;;;28.80;98.70;;;;;;12114284;27;20081;-55
2021/06/17 11:14:28;;;;;;;4.57;1.83;;;28.70;96.40;;;;;;12123218;28;20079;-57
2021/06/17 11:20:18;;;;;;;4.68;2.05;;;28.70;95.60;;;;;;12077160;28;20054;-53
2021/06/17 11:26:05;;;;;;;9.43;2.17;;;29.00;95.80;;;;;;12100461;27;20056;-58
2021/06/17 11:31:55;;;;;;;4.70;2.10;;;29.00;95.20;;;;;;12121631;28;20583;-56
2021/06/17 11:37:42;;;;;;;4.85;1.95;;;29.20;94.40;;;;;;12121644;27;20043;-57
2021/06/17 11:43:30;;;;;;;2.08;1.73;;;29.20;94.30;;;;;;12113999;28;20457;-56
2021/06/17 11:49:19;;;;;;;4.75;2.03;;;29.10;92.90;;;;;;12075458;27;20044;-55
2021/06/17 11:55:10;;;;;;;6.13;2.13;;;29.20;92.50;;;;;;12105043;27;20040;-56
2021/06/17 12:00:58;;;;;;;3.63;1.80;;;29.30;91.50;;;;;;12074387;28;20170;-55
2021/06/17 12:07:03;;;;;;;2.92;2.08;;;29.60;92.60;;;;;;12141019;27;20085;-53
2021/06/17 12:12:52;;;;;;;3.78;2.15;;;29.60;90.20;;;;;;12118018;27;20044;-53
2021/06/17 12:18:41;;;;;;;4.70;2.00;;;29.80;90.00;;;;;;12088790;28;20052;-56
2021/06/17 12:24:30;;;;;;;5.38;1.90;;;30.20;86.80;;;;;;12061876;28;21349;-55
2021/06/17 12:30:34;;;;;;;3.08;1.70;;;30.20;87.80;;;;;;12101100;28;20101;-56
2021/06/17 12:36:21;;;;;;;4.97;2.10;;;29.90;86.00;;;;;;12138636;28;20049;-56
2021/06/17 12:42:18;;;;;;;6.93;2.40;;;29.80;85.40;;;;;;12139056;28;20052;-57
2021/06/17 12:54:21;;;;;;;5.80;1.80;;;29.80;84.70;;;;;;12137844;28;20051;-55
2021/06/17 13:00:16;;;;;;;3.22;2.00;;;29.90;89.50;;;;;;12138803;28;20056;-56
2021/06/17 13:06:04;;;;;;;4.15;2.08;;;30.20;85.40;;;;;;12138512;28;20051;-56
2021/06/17 13:12:13;;;;;;;5.85;1.90;;;30.40;87.30;;;;;;12138443;28;20529;-57
2021/06/17 13:18:22;;;;;;;7.43;2.08;;;30.60;81.10;;;;;;12105241;28;20036;-54
2021/06/17 13:24:19;;;;;;;6.68;1.95;;;30.70;77.40;;;;;;12058743;27;20059;-56
2021/06/17 13:30:07;;;;;;;3.53;1.70;;;30.80;79.40;;;;;;12076483;27;20714;-55
2021/06/17 13:35:56;;;;;;;3.67;1.90;;;30.80;77.10;;;;;;12083232;28;20409;-53
2021/06/17 13:41:44;;;;;;;5.50;2.10;;;30.50;78.30;;;;;;12086535;28;20052;-51
2021/06/17 13:47:31;;;;;;;4.25;2.38;;;30.20;81.00;;;;;;12119848;28;20496;-56
2021/06/17 13:53:19;;;;;;;4.68;2.05;;;30.00;81.70;;;;;;12135365;28;20519;-56
2021/06/17 13:59:06;;;;;;;3.70;1.70;;;29.80;84.50;;;;;;12135498;28;20044;-54
2021/06/17 14:04:53;;;;;;;4.53;1.90;;;29.50;83.90;;;;;;12134737;28;20060;-53
2021/06/17 14:10:42;;;;;;;4.57;2.00;;;29.40;82.30;;;;;;12136324;28;20500;-56
2021/06/17 14:16:29;;;;;;;6.50;2.00;;;29.20;83.70;;;;;;12086771;28;20056;-52
2021/06/17 14:22:15;;;;;;;3.28;1.80;;;29.10;85.50;;;;;;12066036;27;20048;-57
2021/06/17 14:28:04;;;;;;;6.25;2.47;;;29.00;87.10;;;;;;12044144;28;20461;-55
2021/06/17 14:33:51;;;;;;;3.33;1.85;;;29.10;90.60;;;;;;12059162;28;20048;-55
2021/06/17 14:39:38;;;;;;;12.38;2.50;;;29.10;91.30;;;;;;12089607;28;20060;-56
2021/06/17 14:45:26;;;;;;;6.32;2.25;;;29.10;91.20;;;;;;12071370;27;20048;-54
2021/06/17 14:51:13;;;;;;;6.13;2.30;;;29.30;91.50;;;;;;12051754;28;20040;-56
2021/06/17 14:57:04;;;;;;;5.82;2.15;;;29.50;90.60;;;;;;12108888;28;20126;-56
2021/06/17 15:02:52;;;;;;;6.80;2.40;;;29.60;88.10;;;;;;12142499;28;20036;-56
2021/06/17 15:08:42;;;;;;;5.20;2.10;;;29.60;89.80;;;;;;12138896;28;20494;-56
2021/06/17 15:14:29;;;;;;;4.40;1.92;;;29.70;89.40;;;;;;12128249;28;20043;-56
2021/06/17 15:20:18;;;;;;;5.97;2.15;;;29.70;89.30;;;;;;12127679;28;20534;-53
2021/06/17 15:26:10;;;;;;;5.97;2.22;;;30.00;88.60;;;;;;12141155;28;20625;-54
2021/06/17 15:31:57;;;;;;;4.60;2.17;;;30.70;85.20;;;;;;12115802;28;20040;-54
2021/06/17 15:37:45;;;;;;;7.15;2.50;;;31.20;82.70;;;;;;12139155;28;20589;-53
2021/06/17 15:43:33;;;;;;;5.95;2.50;;;30.90;81.80;;;;;;12143709;28;20077;-53
2021/06/17 15:49:20;;;;;;;5.40;2.35;;;30.50;83.60;;;;;;12116769;28;20064;-53
2021/06/17 15:55:09;;;;;;;7.82;2.70;;;30.20;85.30;;;;;;12112187;28;20051;-52
2021/06/17 16:00:56;;;;;;;2.72;2.20;;;29.90;85.70;;;;;;12140204;27;20052;-54
2021/06/17 16:06:44;;;;;;;6.80;2.53;;;29.70;87.90;;;;;;12142368;27;20047;-52
2021/06/17 16:12:32;;;;;;;5.90;2.55;;;29.40;90.00;;;;;;12144949;27;20044;-54
2021/06/17 16:18:19;;;;;;;4.40;2.38;;;29.20;90.50;;;;;;12135850;28;20086;-57
2021/06/17 16:24:07;;;;;;;6.22;2.80;;;29.10;91.40;;;;;;12100547;28;20539;-57
2021/06/17 16:29:55;;;;;;;3.53;2.60;;;29.20;91.40;;;;;;12101438;27;20043;-58
2021/06/17 16:35:42;;;;;;;5.53;3.05;;;29.10;91.90;;;;;;12096900;27;20082;-57
2021/06/17 16:41:29;;;;;;;6.75;2.78;;;29.00;92.80;;;;;;12099228;27;20055;-57
2021/06/17 16:47:18;;;;;;;5.00;2.55;;;28.80;93.50;;;;;;12094781;28;20514;-56
2021/06/17 16:53:05;;;;;;;6.97;2.92;;;28.70;94.20;;;;;;12127634;28;20060;-56
2021/06/17 16:59:00;;;;;;;11.30;3.08;;;28.60;94.80;;;;;;12119285;27;20051;-65
2021/06/17 17:04:51;;;;;;;4.75;2.75;;;28.50;96.60;;;;;;12130061;28;20040;-62
2021/06/17 17:10:38;;;;;;;6.57;2.83;;;28.40;96.50;;;;;;12139564;27;20052;-51
2021/06/17 17:16:25;;;;;;;7.40;2.58;;;28.20;97.20;;;;;;12129593;28;20047;-56
2021/06/17 17:22:13;;;;;;;8.07;3.00;;;27.70;97.50;;;;;;12106101;27;20066;-57
2021/06/17 17:28:00;;;;;;;6.03;2.70;;;27.40;98.80;;;;;;12090451;28;20770;-56
2021/06/17 17:33:47;;;;;;;6.85;2.85;;;27.40;99.50;;;;;;12089707;27;20544;-62
2021/06/17 17:39:35;;;;;;;5.50;2.45;;;27.30;99.00;;;;;;12091402;27;20063;-56
2021/06/17 17:45:22;;;;;;;5.88;2.80;;;27.10;99.40;;;;;;12048527;27;20048;-55
2021/06/17 17:51:09;;;;;;;5.13;2.50;;;27.00;99.90;;;;;;12054247;27;20058;-53
2021/06/17 17:56:58;;;;;;;8.75;2.90;;;26.90;99.90;;;;;;12068142;27;20071;-55
2021/06/17 18:09:28;;;;;;;9.75;2.88;;;26.90;99.10;;;;;;12080908;28;20389;-55
2021/06/17 18:15:26;;;;;;;10.18;2.90;;;26.90;99.70;;;;;;12084077;28;20042;-55
2021/06/17 18:21:13;;;;;;;8.25;2.92;;;26.70;99.90;;;;;;12056444;28;20056;-54
2021/06/17 18:27:00;;;;;;;10.43;3.13;;;26.60;99.90;;;;;;12027639;28;20087;-52
2021/06/17 18:32:48;;;;;;;6.53;3.15;;;26.30;99.90;;;;;;12049151;28;20058;-53
2021/06/17 18:38:35;;;;;;;8.70;3.67;;;25.40;99.90;;;;;;12034570;27;20060;-50
2021/06/17 18:44:22;;;;;;;7.05;3.58;;;25.00;99.90;;;;;;12043265;28;20531;-52
2021/06/17 18:50:13;;;;;;;17.70;5.10;;;24.60;99.90;;;;;;12130037;28;20148;-51
2021/06/17 18:56:08;;;;;;;12.57;4.72;;;24.20;99.90;;;;;;12133512;28;20095;-58
2021/06/17 19:02:03;;;;;;;12.87;5.07;;;24.30;99.90;;;;;;12143519;28;20373;-58
2021/06/17 19:07:52;;;;;;;9.20;5.10;;;24.60;99.90;;;;;;12133431;27;20409;-56
2021/06/17 19:13:39;;;;;;;8.95;5.10;;;24.90;99.90;;;;;;12135572;28;20054;-58
2021/06/17 19:19:32;;;;;;;11.10;4.55;;;25.10;99.90;;;;;;12091855;28;20067;-55
2021/06/17 19:25:24;;;;;;;9.32;4.75;;;25.20;99.90;;;;;;12071376;27;20040;-59
2021/06/17 19:31:12;;;;;;;12.88;4.30;;;25.10;99.90;;;;;;12132944;28;20044;-59
2021/06/17 19:36:59;;;;;;;11.23;4.95;;;24.90;99.90;;;;;;12135070;28;20066;-57
2021/06/17 19:42:49;;;;;;;11.15;4.32;;;24.80;99.90;;;;;;12115234;28;20048;-59
2021/06/17 19:48:36;;;;;;;14.43;4.90;;;24.50;99.90;;;;;;12120854;28;20055;-58
2021/06/17 19:54:26;;;;;;;15.13;3.95;;;24.50;99.90;;;;;;12111197;28;20427;-59
2021/06/17 20:00:16;;;;;;;12.32;4.70;;;24.60;99.90;;;;;;12140371;28;20043;-58
2021/06/17 20:06:06;;;;;;;7.32;4.22;;;24.60;99.90;;;;;;12140340;28;20075;-59
2021/06/17 20:11:53;;;;;;;6.75;4.10;;;24.60;99.90;;;;;;12113962;28;20565;-58
2021/06/17 20:17:42;;;;;;;7.43;3.92;;;24.50;99.90;;;;;;12138849;28;20482;-57
2021/06/17 20:30:12;;;;;;;12.63;4.97;;;24.50;99.90;;;;;;12124849;27;20419;-56
2021/06/17 20:36:01;;;;;;;7.47;4.30;;;24.40;99.90;;;;;;12095803;28;20094;-56
2021/06/17 20:41:48;;;;;;;10.50;4.47;;;24.30;99.90;;;;;;12120737;28;20124;-57
2021/06/17 20:53:41;;;;;;;15.07;4.95;;;24.50;99.90;;;;;;12106133;28;20033;-57
2021/06/17 20:59:28;;;;;;;13.52;4.95;;;24.60;99.90;;;;;;12130715;27;20439;-57
2021/06/17 21:05:15;;;;;;;8.82;4.78;;;24.50;99.90;;;;;;12140113;27;20058;-56
2021/06/17 21:11:05;;;;;;;9.75;4.57;;;24.50;99.90;;;;;;12149958;27;26062;-57
2021/06/17 21:16:54;;;;;;;10.57;5.45;;;24.60;99.90;;;;;;12139645;27;20036;-58
2021/06/17 21:22:41;;;;;;;9.27;5.38;;;24.60;99.90;;;;;;12103806;28;20055;-58
2021/06/17 21:28:29;;;;;;;8.35;4.90;;;24.70;99.90;;;;;;12090518;28;20089;-58
2021/06/17 21:34:16;;;;;;;7.20;3.65;;;24.70;99.90;;;;;;12093130;28;20051;-57
2021/06/17 21:40:04;;;;;;;5.65;3.65;;;24.70;99.90;;;;;;12092838;27;20052;-56
2021/06/17 21:45:52;;;;;;;10.32;4.93;;;24.70;99.90;;;;;;12094898;28;20055;-55
2021/06/17 21:51:39;;;;;;;13.52;5.47;;;24.60;99.90;;;;;;12090937;27;20047;-59
2021/06/17 21:57:26;;;;;;;10.75;4.20;;;24.30;99.90;;;;;;12066755;27;20090;-52
2021/06/17 22:03:14;;;;;;;12.73;4.50;;;24.10;99.90;;;;;;12032811;28;20047;-56
2021/06/17 22:09:01;;;;;;;8.45;4.00;;;24.20;99.90;;;;;;12044677;28;20093;-58
2021/06/17 22:14:48;;;;;;;10.25;4.70;;;24.20;99.90;;;;;;12101688;28;20096;-53
2021/06/17 22:20:37;;;;;;;11.82;4.22;;;24.30;99.90;;;;;;12102567;28;20051;-57
2021/06/17 22:26:24;;;;;;;13.02;4.43;;;24.20;99.90;;;;;;12092091;28;20059;-55
2021/06/17 22:32:11;;;;;;;9.20;4.18;;;24.10;99.90;;;;;;12105287;28;20045;-56
2021/06/17 22:38:01;;;;;;;10.48;4.63;;;24.20;99.90;;;;;;12111775;28;20047;-56
